createdAt,value
2018-11-05T00:04:28.306Z,82.53
2018-11-05T00:09:31.715Z,82.74
2018-11-05T00:14:35.188Z,82.88
2018-11-05T00:19:39.158Z,83.36
2018-11-05T00:24:42.613Z,83.87
2018-11-05T00:29:46.078Z,83.91
2018-11-05T00:34:49.479Z,84.31
2018-11-05T00:39:52.976Z,83.76
2018-11-05T00:44:56.366Z,84.24
2018-11-05T00:49:59.725Z,84.08
2018-11-05T00:55:03.110Z,83.62
2018-11-05T01:00:10.511Z,83.76
2018-11-05T01:05:15.201Z,83.23
2018-11-05T01:10:18.609Z,83.04
2018-11-05T01:15:21.950Z,83.54
2018-11-05T01:20:25.386Z,83.26
2018-11-05T01:25:28.812Z,83.24
2018-11-05T01:30:32.215Z,83.24
2018-11-05T01:35:35.838Z,83.50
2018-11-05T01:40:39.465Z,83.54
2018-11-05T01:45:42.846Z,83.74
2018-11-05T01:50:46.283Z,83.35
2018-11-05T01:55:49.658Z,84.07
2018-11-05T02:00:53.031Z,83.45
2018-11-05T02:05:56.498Z,84.09
2018-11-05T02:10:59.894Z,83.67
2018-11-05T02:16:03.497Z,83.94
2018-11-05T02:21:06.870Z,84.18
2018-11-05T02:26:10.250Z,84.48
2018-11-05T02:31:13.696Z,84.06
2018-11-05T02:36:17.120Z,84.55
2018-11-05T02:41:20.504Z,83.27
2018-11-05T02:46:23.951Z,83.73
2018-11-05T02:51:27.336Z,84.51
2018-11-05T02:56:31.360Z,84.45
2018-11-05T03:01:34.763Z,84.34
2018-11-05T03:06:38.190Z,84.59
2018-11-05T03:11:41.915Z,83.87
2018-11-05T03:16:45.311Z,83.58
2018-11-05T03:21:48.884Z,84.21
2018-11-05T03:26:52.288Z,83.56
2018-11-05T03:31:55.649Z,83.54
2018-11-05T03:36:59.050Z,82.46
2018-11-05T03:42:02.435Z,81.38
2018-11-05T03:47:06.422Z,81.83
2018-11-05T03:52:09.833Z,82.07
2018-11-05T03:57:13.237Z,81.49
2018-11-05T04:02:16.642Z,81.41
2018-11-05T04:07:20.043Z,80.91
2018-11-05T04:12:23.446Z,80.72
2018-11-05T04:17:26.878Z,80.38
2018-11-05T04:22:30.370Z,79.85
2018-11-05T04:27:33.852Z,79.59
2018-11-05T04:32:37.974Z,79.81
2018-11-05T04:37:41.383Z,79.49
2018-11-05T04:42:44.890Z,79.34
2018-11-05T04:47:48.337Z,79.71
2018-11-05T04:52:51.692Z,79.80
2018-11-05T04:57:55.190Z,79.73
2018-11-05T05:02:58.531Z,79.61
2018-11-05T05:08:01.902Z,80.04
2018-11-05T05:13:05.666Z,79.22
2018-11-05T05:18:09.037Z,79.40
2018-11-05T05:23:12.554Z,79.31
2018-11-05T05:28:15.860Z,79.08
2018-11-05T05:33:19.366Z,77.21
2018-11-05T05:38:22.829Z,77.90
2018-11-05T05:43:26.171Z,76.45
2018-11-05T05:48:29.569Z,76.83
2018-11-05T05:53:33.068Z,77.11
2018-11-05T05:58:36.406Z,78.47
2018-11-05T06:03:42.106Z,78.64
2018-11-05T06:08:45.570Z,78.62
2018-11-05T06:13:48.937Z,77.93
2018-11-05T06:18:52.999Z,78.72
2018-11-05T06:23:56.399Z,77.98
2018-11-05T06:28:59.775Z,77.62
2018-11-05T06:34:03.326Z,78.29
2018-11-05T06:39:09.572Z,77.82
2018-11-05T06:44:13.455Z,77.27
2018-11-05T06:49:16.890Z,77.97
2018-11-05T06:54:20.423Z,77.17
2018-11-05T06:59:23.824Z,77.27
2018-11-05T07:04:27.202Z,76.98
2018-11-05T07:09:30.554Z,76.35
2018-11-05T07:14:33.918Z,76.29
2018-11-05T07:19:37.430Z,75.64
2018-11-05T07:24:40.828Z,75.47
2018-11-05T07:29:44.227Z,74.99
2018-11-05T07:34:47.639Z,74.75
2018-11-05T07:39:50.990Z,74.12
2018-11-05T07:44:54.344Z,73.71
2018-11-05T07:49:57.889Z,73.67
2018-11-05T07:55:01.400Z,73.81
2018-11-05T08:00:16.299Z,74.18
2018-11-05T08:05:27.890Z,72.95
2018-11-05T08:10:31.338Z,73.34
2018-11-05T08:15:50.979Z,72.63
2018-11-05T08:20:58.037Z,72.53
2018-11-05T08:26:03.759Z,71.72
2018-11-05T08:31:07.256Z,71.32
2018-11-05T08:36:14.267Z,71.34
2018-11-05T08:41:17.671Z,71.00
2018-11-05T08:46:21.050Z,70.78
2018-11-05T08:51:26.891Z,69.54
2018-11-05T08:56:38.129Z,69.70
2018-11-05T09:01:42.526Z,69.91
2018-11-05T09:06:46.855Z,69.12
2018-11-05T09:11:50.410Z,69.02
2018-11-05T09:16:53.808Z,68.70
2018-11-05T09:21:57.202Z,68.82
2018-11-05T09:27:00.605Z,68.88
2018-11-05T09:32:03.955Z,68.51
2018-11-05T09:37:07.410Z,67.84
2018-11-05T09:42:10.856Z,67.79
2018-11-05T09:47:14.327Z,66.45
2018-11-05T09:52:17.838Z,66.77
2018-11-05T09:57:21.385Z,66.43
2018-11-05T10:02:25.738Z,65.73
2018-11-05T10:07:29.185Z,65.60
2018-11-05T10:12:32.603Z,64.90
2018-11-05T10:17:36.417Z,64.57
2018-11-05T10:22:39.823Z,63.66
2018-11-05T10:27:43.246Z,63.91
2018-11-05T10:32:46.630Z,63.18
2018-11-05T10:37:50.092Z,61.67
2018-11-05T10:42:53.604Z,61.56
2018-11-05T10:47:57.046Z,62.28
2018-11-05T10:53:00.525Z,61.15
2018-11-05T10:58:03.931Z,61.19
2018-11-05T11:03:12.784Z,60.93
2018-11-05T11:08:16.206Z,60.54
2018-11-05T11:13:19.649Z,60.98
2018-11-05T11:18:23.700Z,61.06
2018-11-05T11:23:27.168Z,60.43
2018-11-05T11:28:30.583Z,59.45
2018-11-05T11:33:34.390Z,58.85
2018-11-05T11:38:37.920Z,58.37
2018-11-05T11:43:41.998Z,58.25
2018-11-05T11:48:45.454Z,57.17
2018-11-05T11:53:49.036Z,57.40
2018-11-05T11:58:52.454Z,57.98
2018-11-05T12:03:56.946Z,57.13
2018-11-05T12:09:00.374Z,58.25
2018-11-05T12:14:03.955Z,59.07
2018-11-05T12:19:07.306Z,58.92
2018-11-05T12:24:10.712Z,59.14
2018-11-05T12:29:14.202Z,59.05
2018-11-05T12:34:17.599Z,59.37
2018-11-05T12:39:21.046Z,60.39
2018-11-05T12:44:25.359Z,60.56
2018-11-05T12:49:28.796Z,60.00
2018-11-05T12:54:32.169Z,60.28
2018-11-05T12:59:35.551Z,60.06
2018-11-05T13:04:39.015Z,60.07
2018-11-05T13:09:42.440Z,60.38
2018-11-05T13:14:45.839Z,60.16
2018-11-05T13:19:49.261Z,60.52
2018-11-05T13:24:52.626Z,60.79
2018-11-05T13:29:56.100Z,61.30
2018-11-05T13:35:00.441Z,60.84
2018-11-05T13:40:04.322Z,61.36
2018-11-05T13:45:09.152Z,60.55
2018-11-05T13:50:13.275Z,61.50
2018-11-05T13:55:17.289Z,61.09
2018-11-05T14:00:21.672Z,61.28
2018-11-05T14:05:25.115Z,61.75
2018-11-05T14:10:28.597Z,62.16
2018-11-05T14:15:32.014Z,61.10
2018-11-05T14:20:36.732Z,60.98
2018-11-05T14:25:40.330Z,61.12
2018-11-05T14:30:43.649Z,61.77
2018-11-05T14:35:47.083Z,61.69
2018-11-05T14:40:50.504Z,60.62
2018-11-05T14:45:53.931Z,61.13
2018-11-05T14:50:57.360Z,61.37
2018-11-05T14:56:00.846Z,61.67
2018-11-05T15:01:04.257Z,61.78
2018-11-05T15:06:07.739Z,61.14
2018-11-05T15:11:11.222Z,62.66
2018-11-05T15:16:15.025Z,62.22
2018-11-05T15:21:18.453Z,61.22
2018-11-05T15:26:24.439Z,61.36
2018-11-05T15:31:28.121Z,61.69
2018-11-05T15:36:34.261Z,60.09
2018-11-05T15:41:37.950Z,61.03
2018-11-05T15:46:42.775Z,60.80
2018-11-05T15:51:51.939Z,60.64
2018-11-05T15:56:55.652Z,60.56
2018-11-05T16:02:14.202Z,60.29
2018-11-05T16:07:17.619Z,60.37
2018-11-05T16:12:21.062Z,60.66
2018-11-05T16:17:24.461Z,59.99
2018-11-05T16:22:27.996Z,60.08
2018-11-05T16:27:31.435Z,61.65
2018-11-05T16:32:34.819Z,60.21
2018-11-05T16:37:38.280Z,60.36
2018-11-05T16:42:42.020Z,59.48
2018-11-05T16:47:45.586Z,60.83
2018-11-05T16:52:49.054Z,60.22
2018-11-05T16:57:52.521Z,58.75
2018-11-05T17:02:55.933Z,58.76
2018-11-05T17:08:02.544Z,58.34
2018-11-05T17:13:06.377Z,59.21
2018-11-05T17:18:09.829Z,57.83
2018-11-05T17:23:13.273Z,58.13
2018-11-05T17:28:16.699Z,58.06
2018-11-05T17:33:20.037Z,58.22
2018-11-05T17:38:23.752Z,58.21
2018-11-05T17:43:27.151Z,57.88
2018-11-05T17:48:30.577Z,58.35
2018-11-05T17:53:35.230Z,58.65
2018-11-05T17:58:38.651Z,59.15
2018-11-05T18:03:42.931Z,58.22
2018-11-05T18:08:46.430Z,57.82
2018-11-05T18:13:50.090Z,58.42
2018-11-05T18:18:53.514Z,58.50
2018-11-05T18:23:57.278Z,60.45
2018-11-05T18:29:00.769Z,59.13
2018-11-05T18:34:04.712Z,59.79
2018-11-05T18:39:09.759Z,59.63
2018-11-05T18:44:13.210Z,59.83
2018-11-05T18:49:18.092Z,59.38
2018-11-05T18:54:25.402Z,61.07
2018-11-05T18:59:29.551Z,60.73
2018-11-05T19:04:32.994Z,60.42
2018-11-05T19:09:36.533Z,59.87
2018-11-05T19:14:40.069Z,61.07
2018-11-05T19:19:43.724Z,60.03
2018-11-05T19:24:47.290Z,61.31
2018-11-05T19:29:50.788Z,61.31
2018-11-05T19:34:54.364Z,61.41
2018-11-05T19:39:58.791Z,61.26
2018-11-05T19:45:02.824Z,61.93
2018-11-05T19:50:08.306Z,61.25
2018-11-05T19:55:13.171Z,61.32
2018-11-05T20:00:26.478Z,61.56
2018-11-05T20:05:30.037Z,61.55
2018-11-05T20:10:33.627Z,61.31
2018-11-05T20:15:37.100Z,62.35
2018-11-05T20:20:41.716Z,62.65
2018-11-05T20:25:45.131Z,62.32
2018-11-05T20:30:48.596Z,62.84
2018-11-05T20:35:52.066Z,62.02
2018-11-05T20:40:55.642Z,63.16
2018-11-05T20:45:59.011Z,62.73
2018-11-05T20:51:02.430Z,63.35
2018-11-05T20:56:05.811Z,62.74
2018-11-05T21:01:09.332Z,63.12
2018-11-05T21:06:12.788Z,63.54
2018-11-05T21:11:16.230Z,64.43
2018-11-05T21:16:19.696Z,63.69
2018-11-05T21:21:23.154Z,64.21
2018-11-05T21:26:26.511Z,64.80
2018-11-05T21:31:29.919Z,64.83
2018-11-05T21:36:33.311Z,65.90
2018-11-05T21:41:37.410Z,65.24
2018-11-05T21:46:40.832Z,65.92
2018-11-05T21:51:44.262Z,66.38
2018-11-05T21:56:47.748Z,67.37
2018-11-05T22:01:51.179Z,66.93
2018-11-05T22:06:54.774Z,67.87
2018-11-05T22:11:58.339Z,69.00
2018-11-05T22:17:01.868Z,68.63
2018-11-05T22:22:05.611Z,68.79
2018-11-05T22:27:09.029Z,68.43
2018-11-05T22:32:12.632Z,68.47
2018-11-05T22:37:16.213Z,69.17
2018-11-05T22:42:19.915Z,68.65
2018-11-05T22:47:23.520Z,69.91
2018-11-05T22:52:27.010Z,70.78
2018-11-05T22:57:30.475Z,70.47
2018-11-05T23:02:33.862Z,70.76
2018-11-05T23:07:37.271Z,71.82
2018-11-05T23:12:40.706Z,71.84
2018-11-05T23:17:44.346Z,71.68
2018-11-05T23:22:47.766Z,71.91
2018-11-05T23:27:51.177Z,72.17
2018-11-05T23:32:55.147Z,72.21
2018-11-05T23:37:58.562Z,72.19
2018-11-05T23:43:01.983Z,73.25
2018-11-05T23:48:05.578Z,72.61
2018-11-05T23:53:08.970Z,74.19
2018-11-05T23:58:12.445Z,74.01
